createdAt,value
2022-11-14T00:00:52.560Z,21.27
2022-11-14T00:03:42.304Z,20.17
2022-11-14T00:06:32.128Z,20.58
2022-11-14T00:09:22.068Z,20.98
2022-11-14T00:12:11.657Z,20.67
2022-11-14T00:15:02.192Z,21.30
2022-11-14T00:17:51.150Z,19.95
2022-11-14T00:20:40.584Z,20.23
2022-11-14T00:23:30.185Z,20.77
2022-11-14T00:26:19.832Z,21.48
2022-11-14T00:29:09.195Z,19.85
2022-11-14T00:32:00.198Z,20.77
2022-11-14T00:34:49.104Z,21.60
2022-11-14T00:37:37.847Z,21.15
2022-11-14T00:40:32.684Z,20.58
2022-11-14T00:43:22.136Z,22.23
2022-11-14T00:46:11.481Z,19.55
2022-11-14T00:49:02.087Z,21.42
2022-11-14T00:51:51.656Z,22.02
2022-11-14T00:54:40.763Z,19.25
2022-11-14T00:57:30.430Z,20.52
2022-11-14T01:00:20.045Z,20.23
2022-11-14T01:03:09.750Z,21.30
2022-11-14T01:06:05.732Z,20.23
2022-11-14T01:08:55.322Z,20.40
2022-11-14T01:11:44.936Z,21.95
2022-11-14T01:14:34.473Z,21.00
2022-11-14T01:17:23.288Z,21.95
2022-11-14T01:20:12.271Z,20.70
2022-11-14T01:23:02.922Z,21.02
2022-11-14T01:25:52.306Z,21.30
2022-11-14T01:28:42.339Z,20.35
2022-11-14T01:31:31.808Z,22.45
2022-11-14T01:34:20.640Z,20.73
2022-11-14T01:37:10.084Z,21.65
2022-11-14T01:40:01.287Z,22.45
2022-11-14T01:43:05.472Z,21.25
2022-11-14T01:45:56.314Z,20.55
2022-11-14T01:48:48.426Z,23.08
2022-11-14T01:51:39.251Z,21.38
2022-11-14T01:54:36.591Z,22.92
2022-11-14T01:57:29.444Z,21.67
2022-11-14T02:00:18.880Z,21.67
2022-11-14T02:03:08.197Z,20.80
2022-11-14T02:05:57.879Z,20.77
2022-11-14T02:08:47.184Z,21.58
2022-11-14T02:11:42.020Z,20.67
2022-11-14T02:14:33.173Z,21.52
2022-11-14T02:17:29.635Z,21.45
2022-11-14T02:20:22.822Z,21.25
2022-11-14T02:23:13.073Z,21.13
2022-11-14T02:26:03.016Z,21.40
2022-11-14T02:28:52.686Z,21.27
2022-11-14T02:31:42.063Z,21.92
2022-11-14T02:34:32.247Z,22.05
2022-11-14T02:37:23.048Z,21.10
2022-11-14T02:40:13.107Z,21.30
2022-11-14T02:43:02.215Z,22.90
2022-11-14T02:45:51.459Z,22.42
2022-11-14T02:48:40.865Z,22.08
2022-11-14T02:51:29.953Z,21.77
2022-11-14T02:54:21.028Z,22.00
2022-11-14T02:57:10.257Z,21.35
2022-11-14T02:59:59.822Z,21.88
2022-11-14T03:02:49.655Z,22.08
2022-11-14T03:05:39.530Z,22.80
2022-11-14T03:08:29.419Z,23.65
2022-11-14T03:11:20.232Z,22.87
2022-11-14T03:14:09.736Z,23.13
2022-11-14T03:16:58.678Z,22.30
2022-11-14T03:19:47.985Z,24.42
2022-11-14T03:22:36.815Z,22.50
2022-11-14T03:25:25.902Z,23.65
2022-11-14T03:28:16.573Z,22.45
2022-11-14T03:31:05.941Z,22.20
2022-11-14T03:33:55.495Z,23.08
2022-11-14T03:36:46.151Z,21.50
2022-11-14T03:39:35.247Z,24.58
2022-11-14T03:42:25.042Z,22.45
2022-11-14T03:45:15.572Z,24.83
2022-11-14T03:48:05.091Z,22.52
2022-11-14T03:50:54.817Z,21.10
2022-11-14T03:53:44.189Z,25.40
2022-11-14T03:56:33.118Z,25.20
2022-11-14T03:59:22.254Z,23.88
2022-11-14T04:02:12.833Z,26.20
2022-11-14T04:05:01.839Z,25.27
2022-11-14T04:07:51.551Z,26.27
2022-11-14T04:10:41.340Z,25.17
2022-11-14T04:13:30.367Z,23.97
2022-11-14T04:16:20.175Z,23.50
2022-11-14T04:19:11.214Z,24.53
2022-11-14T04:22:00.046Z,25.63
2022-11-14T04:24:49.002Z,24.00
2022-11-14T04:27:38.779Z,25.50
2022-11-14T04:30:32.175Z,24.02
2022-11-14T04:33:23.793Z,25.38
2022-11-14T04:36:14.891Z,25.70
2022-11-14T04:39:04.512Z,24.52
2022-11-14T04:41:54.007Z,25.73
2022-11-14T04:44:42.980Z,26.10
2022-11-14T04:47:32.396Z,25.50
2022-11-14T04:50:22.158Z,25.53
2022-11-14T04:53:13.020Z,25.40
2022-11-14T04:56:02.250Z,25.42
2022-11-14T04:58:52.225Z,25.30
2022-11-14T05:01:42.410Z,23.88
2022-11-14T05:04:31.882Z,26.35
2022-11-14T05:07:20.972Z,25.63
2022-11-14T05:10:12.804Z,26.77
2022-11-14T05:13:02.609Z,24.85
2022-11-14T05:15:52.146Z,26.00
2022-11-14T05:18:45.879Z,26.95
2022-11-14T05:21:36.481Z,25.35
2022-11-14T05:24:26.597Z,29.65
2022-11-14T05:27:17.585Z,26.13
2022-11-14T05:30:06.994Z,28.98
2022-11-14T05:32:56.547Z,27.93
2022-11-14T05:35:45.532Z,28.88
2022-11-14T05:38:34.644Z,29.03
2022-11-14T05:41:24.152Z,30.42
2022-11-14T05:44:15.013Z,28.50
2022-11-14T05:47:04.246Z,28.53
2022-11-14T05:49:53.574Z,30.10
2022-11-14T05:52:42.578Z,30.67
2022-11-14T05:55:31.695Z,31.63
2022-11-14T05:58:21.065Z,31.63
2022-11-14T06:01:12.169Z,30.93
2022-11-14T06:04:01.349Z,31.47
2022-11-14T06:06:50.242Z,32.03
2022-11-14T06:09:39.580Z,32.70
2022-11-14T06:12:29.325Z,32.10
2022-11-14T06:15:18.187Z,33.17
2022-11-14T06:18:09.448Z,30.80
2022-11-14T06:21:03.230Z,31.07
2022-11-14T06:23:53.359Z,31.90
2022-11-14T06:26:42.786Z,31.87
2022-11-14T06:29:35.442Z,34.05
2022-11-14T06:32:24.907Z,32.17
2022-11-14T06:35:15.698Z,31.17
2022-11-14T06:38:05.234Z,31.73
2022-11-14T06:40:54.405Z,32.73
2022-11-14T06:43:44.716Z,30.23
2022-11-14T06:46:34.173Z,31.37
2022-11-14T06:49:24.938Z,30.57
2022-11-14T06:52:15.853Z,26.07
2022-11-14T06:55:05.490Z,31.98
2022-11-14T06:57:55.870Z,31.70
2022-11-14T07:00:45.155Z,28.03
2022-11-14T07:03:35.800Z,32.28
2022-11-14T07:06:26.215Z,30.23
2022-11-14T07:09:16.957Z,30.10
2022-11-14T07:12:06.574Z,32.28
2022-11-14T07:14:55.656Z,29.90
2022-11-14T07:17:44.842Z,31.60
2022-11-14T07:20:34.746Z,31.92
2022-11-14T07:23:24.131Z,32.00
2022-11-14T07:26:15.350Z,31.87
2022-11-14T07:29:04.405Z,31.90
2022-11-14T07:31:54.834Z,32.57
2022-11-14T07:34:44.127Z,33.27
2022-11-14T07:37:33.447Z,32.30
2022-11-14T07:40:22.315Z,31.67
2022-11-14T07:43:14.252Z,31.10
2022-11-14T07:46:03.943Z,27.80
2022-11-14T07:48:52.926Z,29.17
2022-11-14T07:51:42.348Z,30.30
2022-11-14T07:54:31.636Z,29.87
2022-11-14T07:57:21.036Z,28.67
2022-11-14T08:00:13.342Z,27.80
2022-11-14T08:03:02.392Z,29.47
2022-11-14T08:05:51.335Z,29.33
2022-11-14T08:08:41.156Z,27.50
2022-11-14T08:11:47.498Z,27.98
2022-11-14T08:14:36.375Z,26.27
2022-11-14T08:17:27.509Z,28.02
2022-11-14T08:20:17.165Z,30.58
2022-11-14T08:23:07.143Z,27.23
2022-11-14T08:25:56.412Z,30.45
2022-11-14T08:28:46.050Z,27.15
2022-11-14T08:31:35.424Z,26.40
2022-11-14T08:34:29.512Z,28.23
2022-11-14T08:37:18.416Z,27.05
2022-11-14T08:40:07.838Z,26.20
2022-11-14T08:43:01.522Z,25.38
2022-11-14T08:45:50.977Z,25.92
2022-11-14T08:48:39.960Z,23.42
2022-11-14T08:51:30.792Z,26.13
2022-11-14T08:54:20.904Z,24.33
2022-11-14T08:57:11.893Z,26.25
2022-11-14T09:00:02.659Z,25.98
2022-11-14T09:02:51.764Z,24.95
2022-11-14T09:05:41.353Z,26.40
2022-11-14T09:08:32.741Z,25.65
2022-11-14T09:11:21.751Z,25.55
2022-11-14T09:14:11.143Z,25.77
2022-11-14T09:17:05.511Z,26.25
2022-11-14T09:19:55.929Z,25.20
2022-11-14T09:22:45.021Z,25.33
2022-11-14T09:25:35.768Z,23.98
2022-11-14T09:28:25.253Z,20.83
2022-11-14T09:31:15.878Z,22.65
2022-11-14T09:34:05.087Z,21.20
2022-11-14T09:36:54.062Z,20.52
2022-11-14T09:39:43.110Z,20.92
2022-11-14T09:42:51.814Z,19.77
2022-11-14T09:45:45.274Z,20.05
2022-11-14T09:48:34.332Z,23.63
2022-11-14T09:51:25.734Z,22.85
2022-11-14T09:54:21.619Z,23.15
2022-11-14T09:57:17.377Z,22.50
2022-11-14T10:00:15.472Z,22.95
2022-11-14T10:03:14.114Z,23.67
2022-11-14T10:06:18.872Z,25.25
2022-11-14T10:09:39.706Z,23.85
2022-11-14T10:12:38.042Z,23.92
2022-11-14T10:15:35.534Z,23.73
2022-11-14T10:18:41.684Z,22.33
2022-11-14T10:21:42.969Z,24.83
2022-11-14T10:25:11.454Z,23.98
2022-11-14T10:28:13.272Z,23.65
2022-11-14T10:31:12.331Z,26.20
2022-11-14T10:34:07.720Z,23.15
2022-11-14T10:37:05.429Z,22.42
2022-11-14T10:39:58.019Z,22.75
2022-11-14T10:42:50.687Z,22.38
2022-11-14T10:45:44.327Z,23.02
2022-11-14T10:48:38.647Z,23.23
2022-11-14T10:51:34.079Z,22.27
2022-11-14T10:54:27.709Z,24.13
2022-11-14T10:57:18.184Z,22.33
2022-11-14T11:00:16.521Z,23.52
2022-11-14T11:03:05.916Z,23.65
2022-11-14T11:05:58.593Z,22.25
2022-11-14T11:09:04.840Z,23.33
2022-11-14T11:11:57.217Z,24.42
2022-11-14T11:14:47.430Z,23.48
2022-11-14T11:17:42.842Z,22.48
2022-11-14T11:20:33.960Z,23.10
2022-11-14T11:23:29.375Z,22.17
2022-11-14T11:26:21.341Z,23.38
2022-11-14T11:29:17.471Z,21.33
2022-11-14T11:32:07.620Z,21.02
2022-11-14T11:34:57.341Z,22.75
2022-11-14T11:37:54.729Z,21.00
2022-11-14T11:40:48.021Z,20.60
2022-11-14T11:43:45.487Z,20.88
2022-11-14T11:46:41.125Z,21.42
2022-11-14T11:49:39.704Z,21.02
2022-11-14T11:52:34.411Z,21.25
2022-11-14T11:55:27.530Z,21.30
2022-11-14T11:58:25.162Z,20.70
2022-11-14T12:01:15.458Z,21.67
2022-11-14T12:04:05.144Z,21.20
2022-11-14T12:07:00.069Z,21.92
2022-11-14T12:13:33.174Z,21.30
2022-11-14T12:16:55.249Z,21.90
2022-11-14T12:20:01.992Z,21.15
2022-11-14T12:23:20.675Z,21.50
2022-11-14T12:26:24.453Z,20.73
2022-11-14T12:29:38.906Z,21.10
2022-11-14T12:32:32.552Z,19.95
2022-11-14T12:35:26.570Z,20.95
2022-11-14T12:38:18.008Z,19.90
2022-11-14T12:41:08.881Z,19.95
2022-11-14T12:44:19.235Z,19.85
2022-11-14T12:47:20.610Z,19.08
2022-11-14T12:50:41.010Z,19.42
2022-11-14T12:53:46.925Z,19.27
2022-11-14T12:56:59.954Z,19.33
2022-11-14T12:59:56.620Z,19.60
2022-11-14T13:03:15.603Z,20.30
2022-11-14T13:06:09.707Z,19.60
2022-11-14T13:09:27.000Z,19.48
2022-11-14T13:12:51.849Z,18.60
2022-11-14T13:16:03.692Z,19.65
2022-11-14T13:19:16.089Z,19.40
2022-11-14T13:22:25.781Z,20.02
2022-11-14T13:25:19.084Z,18.63
2022-11-14T13:28:25.075Z,19.45
2022-11-14T13:31:21.706Z,18.08
2022-11-14T13:34:31.412Z,19.90
2022-11-14T13:37:33.438Z,19.08
2022-11-14T13:40:25.113Z,18.65
2022-11-14T13:43:19.267Z,18.08
2022-11-14T13:46:13.686Z,18.55
2022-11-14T13:49:11.462Z,18.80
2022-11-14T13:52:01.606Z,18.30
2022-11-14T13:54:53.994Z,18.58
2022-11-14T13:57:46.869Z,18.13
2022-11-14T14:00:48.720Z,16.80
2022-11-14T14:03:48.102Z,16.40
2022-11-14T14:06:44.549Z,17.95
2022-11-14T14:09:39.891Z,16.70
2022-11-14T14:12:41.712Z,16.73
2022-11-14T14:15:32.710Z,16.63
2022-11-14T14:18:25.813Z,15.20
2022-11-14T14:21:20.649Z,16.48
2022-11-14T14:24:15.890Z,16.42
2022-11-14T14:27:10.640Z,17.15
2022-11-14T14:30:05.570Z,17.20
2022-11-14T14:33:12.417Z,16.50
2022-11-14T14:36:02.079Z,17.92
2022-11-14T14:38:52.180Z,16.15
2022-11-14T14:41:41.311Z,16.88
2022-11-14T14:44:33.159Z,16.13
2022-11-14T14:47:40.251Z,16.52
2022-11-14T14:50:31.093Z,17.00
2022-11-14T14:53:21.446Z,15.57
2022-11-14T14:56:22.431Z,16.00
2022-11-14T14:59:18.967Z,17.17
2022-11-14T15:02:15.854Z,16.70
2022-11-14T15:05:07.932Z,17.60
2022-11-14T15:07:59.168Z,16.77
2022-11-14T15:10:48.019Z,17.02
2022-11-14T15:13:38.784Z,15.90
2022-11-14T15:16:28.914Z,17.10
2022-11-14T15:19:20.984Z,15.27
2022-11-14T15:22:26.832Z,16.38
2022-11-14T15:25:22.009Z,15.23
2022-11-14T15:28:18.790Z,16.55
2022-11-14T15:31:08.241Z,17.00
2022-11-14T15:34:04.495Z,16.30
2022-11-14T15:37:13.751Z,17.15
2022-11-14T15:40:18.084Z,16.48
2022-11-14T15:43:26.062Z,16.40
2022-11-14T15:46:28.232Z,16.20
2022-11-14T15:49:24.243Z,17.05
2022-11-14T15:52:20.612Z,18.20
2022-11-14T15:55:14.908Z,16.85
2022-11-14T15:58:27.127Z,18.08
2022-11-14T16:01:16.686Z,17.48
2022-11-14T16:04:06.603Z,17.23
2022-11-14T16:06:56.020Z,16.90
2022-11-14T16:09:47.265Z,16.35
2022-11-14T16:12:37.914Z,17.38
2022-11-14T16:15:27.729Z,18.20
2022-11-14T16:18:17.037Z,16.83
2022-11-14T16:21:06.438Z,17.75
2022-11-14T16:23:55.874Z,17.63
2022-11-14T16:26:45.408Z,17.95
2022-11-14T16:29:36.144Z,18.00
2022-11-14T16:32:27.107Z,17.98
2022-11-14T16:35:19.102Z,17.98
2022-11-14T16:38:08.308Z,17.80
2022-11-14T16:40:58.266Z,18.58
2022-11-14T16:43:47.524Z,18.63
2022-11-14T16:46:40.615Z,19.65
2022-11-14T16:49:30.141Z,19.65
2022-11-14T16:52:19.906Z,20.15
2022-11-14T16:55:09.578Z,19.02
2022-11-14T16:57:59.084Z,20.48
2022-11-14T17:00:48.328Z,19.80
2022-11-14T17:03:39.562Z,19.80
2022-11-14T17:06:28.704Z,21.30
2022-11-14T17:09:18.308Z,21.55
2022-11-14T17:12:08.272Z,20.45
2022-11-14T17:14:57.757Z,22.98
2022-11-14T17:17:50.839Z,20.83
2022-11-14T17:20:42.125Z,19.48
2022-11-14T17:23:31.012Z,20.88
2022-11-14T17:26:20.198Z,20.20
2022-11-14T17:29:11.195Z,20.40
2022-11-14T17:32:01.422Z,22.23
2022-11-14T17:34:50.524Z,23.40
2022-11-14T17:37:41.313Z,23.45
2022-11-14T17:40:30.290Z,23.35
2022-11-14T17:43:19.347Z,21.23
2022-11-14T17:46:14.192Z,25.27
2022-11-14T17:49:05.474Z,24.42
2022-11-14T17:51:54.627Z,25.00
2022-11-14T17:54:45.308Z,24.15
2022-11-14T17:57:34.639Z,24.93
2022-11-14T18:00:24.157Z,22.38
2022-11-14T18:03:13.343Z,25.17
2022-11-14T18:06:07.179Z,24.77
2022-11-14T18:08:57.140Z,25.05
2022-11-14T18:11:47.540Z,23.87
2022-11-14T18:14:37.392Z,23.88
2022-11-14T18:17:27.007Z,27.10
2022-11-14T18:20:16.664Z,25.27
2022-11-14T18:23:05.898Z,24.95
2022-11-14T18:25:55.885Z,25.65
2022-11-14T18:28:47.042Z,24.38
2022-11-14T18:31:36.214Z,25.73
2022-11-14T18:34:25.535Z,25.45
2022-11-14T18:37:15.405Z,28.15
2022-11-14T18:40:04.255Z,25.92
2022-11-14T18:42:53.411Z,26.00
2022-11-14T18:45:44.264Z,25.67
2022-11-14T18:48:34.203Z,24.77
2022-11-14T18:51:24.491Z,25.93
2022-11-14T18:54:14.644Z,25.55
2022-11-14T18:57:04.568Z,24.80
2022-11-14T18:59:54.536Z,25.65
2022-11-14T19:02:45.566Z,26.00
2022-11-14T19:05:37.530Z,27.13
2022-11-14T19:08:26.711Z,26.38
2022-11-14T19:11:30.388Z,25.98
2022-11-14T19:14:19.184Z,26.70
2022-11-14T19:17:08.452Z,27.67
2022-11-14T19:19:59.184Z,26.40
2022-11-14T19:22:48.303Z,27.70
2022-11-14T19:25:38.159Z,28.83
2022-11-14T19:28:27.441Z,29.52
2022-11-14T19:31:16.355Z,29.33
2022-11-14T19:34:06.863Z,28.57
2022-11-14T19:37:00.613Z,28.52
2022-11-14T19:39:52.431Z,29.23
2022-11-14T19:42:41.948Z,28.30
2022-11-14T19:45:31.026Z,29.10
2022-11-14T19:48:20.186Z,31.23
2022-11-14T19:51:09.986Z,28.30
2022-11-14T19:54:02.163Z,26.10
2022-11-14T19:56:50.983Z,27.53
2022-11-14T19:59:40.156Z,27.83
2022-11-14T20:02:29.891Z,27.63
2022-11-14T20:05:19.433Z,25.83
2022-11-14T20:08:09.434Z,26.63
2022-11-14T20:11:00.985Z,26.87
2022-11-14T20:13:50.712Z,26.50
2022-11-14T20:16:40.399Z,25.43
2022-11-14T20:19:29.583Z,25.77
2022-11-14T20:22:19.231Z,26.23
2022-11-14T20:25:09.303Z,26.30
2022-11-14T20:28:00.398Z,26.43
2022-11-14T20:30:49.770Z,26.20
2022-11-14T20:33:39.641Z,26.00
2022-11-14T20:36:38.971Z,28.97
2022-11-14T20:39:38.415Z,27.27
2022-11-14T20:42:27.736Z,27.88
2022-11-14T20:45:18.804Z,28.07
2022-11-14T20:48:08.376Z,27.07
2022-11-14T20:51:03.781Z,25.90
2022-11-14T20:53:53.631Z,28.70
2022-11-14T20:56:42.705Z,29.27
2022-11-14T20:59:31.904Z,28.27
2022-11-14T21:02:22.443Z,26.70
2022-11-14T21:05:11.813Z,27.53
2022-11-14T21:08:00.714Z,29.93
2022-11-14T21:10:51.034Z,27.87
2022-11-14T21:13:58.952Z,27.70
2022-11-14T21:16:48.223Z,28.27
2022-11-14T21:19:38.469Z,29.00
2022-11-14T21:22:27.246Z,29.97
2022-11-14T21:25:16.127Z,28.00
2022-11-14T21:28:05.154Z,27.27
2022-11-14T21:30:54.047Z,28.13
2022-11-14T21:33:43.563Z,28.97
2022-11-14T21:36:49.679Z,27.30
2022-11-14T21:39:38.761Z,28.33
2022-11-14T21:42:28.538Z,26.07
2022-11-14T21:45:18.558Z,26.93
2022-11-14T21:48:07.798Z,26.70
2022-11-14T21:50:57.149Z,25.10
2022-11-14T21:53:48.790Z,26.43
2022-11-14T21:56:38.885Z,24.13
2022-11-14T21:59:29.058Z,26.03
2022-11-14T22:02:35.619Z,26.00
2022-11-14T22:05:24.757Z,23.73
2022-11-14T22:08:13.821Z,25.50
2022-11-14T22:11:04.885Z,26.03
2022-11-14T22:17:21.226Z,25.73
2022-11-14T22:20:11.046Z,24.33
2022-11-14T22:23:00.024Z,24.10
2022-11-14T22:25:54.625Z,22.80
2022-11-14T22:28:45.664Z,21.47
2022-11-14T22:31:34.765Z,21.97
2022-11-14T22:34:23.692Z,22.63
2022-11-14T22:37:13.029Z,23.20
2022-11-14T22:40:02.215Z,21.77
2022-11-14T22:42:51.593Z,22.57
2022-11-14T22:45:42.215Z,21.37
2022-11-14T22:48:32.283Z,20.90
2022-11-14T22:51:22.545Z,22.50
2022-11-14T22:54:13.860Z,20.53
2022-11-14T22:57:03.206Z,22.50
2022-11-14T22:59:52.496Z,22.57
2022-11-14T23:02:43.184Z,21.73
2022-11-14T23:05:36.409Z,23.60
2022-11-14T23:08:25.504Z,21.97
2022-11-14T23:11:16.333Z,20.50
2022-11-14T23:14:05.390Z,20.70
2022-11-14T23:16:54.634Z,20.10
2022-11-14T23:19:46.077Z,18.70
2022-11-14T23:22:35.325Z,19.20
2022-11-14T23:25:26.540Z,19.37
2022-11-14T23:28:16.074Z,21.53
2022-11-14T23:31:05.477Z,21.10
2022-11-14T23:33:56.316Z,21.37
2022-11-14T23:36:47.006Z,21.50
2022-11-14T23:39:35.863Z,22.30
2022-11-14T23:42:24.708Z,20.53
2022-11-14T23:45:13.798Z,21.60
2022-11-14T23:48:03.463Z,22.27
2022-11-14T23:50:52.986Z,22.30
2022-11-14T23:53:44.144Z,20.27
2022-11-14T23:56:33.240Z,20.67
2022-11-14T23:59:22.475Z,22.03
